Time;durP1;ratioP1;P1;durP2;ratioP2;P2;SDS_P1;SDS_P2;PMS_P1;PMS_P2;Temp;Humidity;BMP_temperature;BMP_pressure;BME280_temperature;BME280_humidity;BME280_pressure;Samples;Min_cycle;Max_cycle;Signal;HPM_P1;HPM_P2
2022/03/26 00:02:06;;;;;;;23.42;21.23;;;;;;;7.00;100.00;102971.00;5208329;28;20030;-80
2022/03/26 00:04:37;;;;;;;30.75;23.60;;;;;;;7.45;100.00;103059.66;5221253;28;20559;-79
2022/03/26 00:07:07;;;;;;;26.83;23.90;;;;;;;6.70;100.00;102943.22;5203829;28;20033;-81
2022/03/26 00:09:37;;;;;;;24.35;21.80;;;;;;;7.54;100.00;103060.41;5204641;28;20040;-80
2022/03/26 00:12:08;;;;;;;29.10;23.98;;;;;;;7.18;100.00;103019.91;5209660;28;20091;-80
2022/03/26 00:14:39;;;;;;;27.95;23.98;;;;;;;7.36;100.00;103060.72;5207692;28;20033;-79
2022/03/26 00:17:09;;;;;;;26.13;23.63;;;;;;;7.32;100.00;103061.28;5209340;28;20332;-79
2022/03/26 00:19:40;;;;;;;26.92;24.10;;;;;;;6.54;100.00;102946.88;5209397;28;20026;-80
2022/03/26 00:22:10;;;;;;;29.08;23.45;;;;;;;7.01;100.00;103012.97;5209372;28;20034;-79
2022/03/26 00:24:41;;;;;;;23.85;21.05;;;;;;;7.04;100.00;103028.75;5209410;28;20029;-80
2022/03/26 00:27:11;;;;;;;35.50;25.92;;;;;;;6.99;100.00;103031.13;5223908;28;20080;-82
2022/03/26 00:29:41;;;;;;;27.27;24.73;;;;;;;7.05;100.00;103060.81;5206683;28;20026;-83
2022/03/26 00:32:12;;;;;;;26.42;23.13;;;;;;;6.07;100.00;102901.38;5222281;28;20112;-81
2022/03/26 00:34:43;;;;;;;41.20;24.98;;;;;;;6.47;100.00;102964.69;5207271;28;20046;-80
2022/03/26 00:37:14;;;;;;;29.83;24.27;;;;;;;6.93;100.00;103050.66;5206540;28;20022;-81
2022/03/26 00:39:44;;;;;;;29.40;25.10;;;;;;;6.63;100.00;103001.34;5206211;28;20030;-80
2022/03/26 00:42:15;;;;;;;30.25;23.60;;;;;;;6.36;100.00;102951.66;5205758;28;20398;-80
2022/03/26 00:44:46;;;;;;;28.65;25.75;;;;;;;6.55;100.00;103004.06;5202914;28;20030;-82
2022/03/26 00:47:16;;;;;;;29.85;25.00;;;;;;;6.92;100.00;103051.69;5201989;28;20116;-81
2022/03/26 00:49:47;;;;;;;27.17;22.48;;;;;;;6.76;100.00;103041.88;5203150;28;20041;-80
2022/03/26 00:52:18;;;;;;;32.63;24.20;;;;;;;5.94;100.00;102923.41;5203422;28;20056;-81
2022/03/26 00:54:49;;;;;;;40.42;25.40;;;;;;;6.77;100.00;103051.59;5199916;28;20072;-80
2022/03/26 00:57:19;;;;;;;32.00;26.20;;;;;;;6.01;100.00;102927.06;5200164;28;20033;-83
2022/03/26 00:59:50;;;;;;;24.00;21.42;;;;;;;6.71;100.00;103065.72;5201175;28;20022;-81
2022/03/26 01:02:20;;;;;;;30.73;23.85;;;;;;;6.58;100.00;103034.09;5199185;28;20053;-82
2022/03/26 01:04:51;;;;;;;33.13;25.27;;;;;;;6.69;100.00;103055.16;5201071;28;20021;-82
2022/03/26 01:07:21;;;;;;;28.08;25.25;;;;;;;6.15;100.00;102989.84;5200191;28;20038;-81
2022/03/26 01:09:54;;;;;;;35.78;23.33;;;;;;;6.57;100.00;103070.00;5199701;28;20072;-80
2022/03/26 01:12:26;;;;;;;28.35;25.20;;;;;;;6.29;100.00;103007.91;5201399;28;20095;-82
2022/03/26 01:14:56;;;;;;;24.90;22.50;;;;;;;5.70;100.00;102928.84;5200860;28;20046;-82
2022/03/26 01:17:27;;;;;;;30.13;24.48;;;;;;;5.31;100.00;102876.03;5202066;28;20084;-83
2022/03/26 01:19:59;;;;;;;25.55;22.80;;;;;;;5.76;100.00;102952.28;5200731;28;20032;-82
2022/03/26 01:22:30;;;;;;;29.42;22.08;;;;;;;5.31;100.00;102883.22;5200332;28;20029;-82
2022/03/26 01:25:01;;;;;;;25.58;23.10;;;;;;;6.29;100.00;103048.16;5235660;22;20048;-55
2022/03/26 01:27:32;;;;;;;26.27;23.70;;;;;;;6.05;100.00;103003.50;5203518;28;20075;-55
2022/03/26 01:30:03;;;;;;;31.13;23.63;;;;;;;6.10;100.00;103008.31;5203782;28;20029;-58
2022/03/26 01:32:34;;;;;;;26.80;24.05;;;;;;;6.24;100.00;103031.75;5205176;28;20024;-55
2022/03/26 01:35:05;;;;;;;28.33;23.10;;;;;;;6.17;100.00;103022.72;5220261;28;20026;-58
2022/03/26 01:37:36;;;;;;;25.55;22.98;;;;;;;6.21;100.00;103033.94;5220478;28;20061;-57
2022/03/26 01:40:07;;;;;;;33.17;24.52;;;;;;;6.07;100.00;103020.22;5220457;28;20029;-57
2022/03/26 01:42:37;;;;;;;30.23;26.50;;;;;;;6.16;100.00;103044.34;5220177;28;20116;-57
2022/03/26 01:45:12;;;;;;;30.35;27.00;;;;;;;6.00;100.00;103027.31;5219819;28;20128;-57
2022/03/26 01:47:43;;;;;;;27.50;24.52;;;;;;;5.98;100.00;103037.38;5220411;28;20025;-57
2022/03/26 01:50:13;;;;;;;24.83;22.70;;;;;;;5.93;100.00;103041.56;5220274;28;20465;-57
2022/03/26 01:52:44;;;;;;;25.85;23.17;;;;;;;5.88;100.00;103036.69;5204890;28;20076;-58
2022/03/26 01:55:14;;;;;;;26.65;24.02;;;;;;;5.85;100.00;103039.72;5219956;28;20025;-56
2022/03/26 01:57:45;;;;;;;27.10;24.20;;;;;;;5.78;100.00;103025.31;5220144;28;20037;-55
2022/03/26 02:00:16;;;;;;;32.22;28.70;;;;;;;5.80;100.00;103028.66;5219956;28;20033;-57
2022/03/26 02:02:47;;;;;;;31.48;28.20;;;;;;;5.85;100.00;103031.66;5219985;28;20132;-57
2022/03/26 02:05:20;;;;;;;27.48;24.58;;;;;;;5.84;100.00;103019.25;5219691;28;20495;-56
2022/03/26 02:07:51;;;;;;;27.83;22.63;;;;;;;5.79;100.00;103018.94;5219783;28;20044;-58
2022/03/26 02:10:21;;;;;;;32.75;25.42;;;;;;;5.70;100.00;103019.97;5203284;28;20017;-57
2022/03/26 02:12:51;;;;;;;30.73;24.00;;;;;;;5.66;100.00;103026.69;5218978;28;20025;-57
2022/03/26 02:15:22;;;;;;;32.83;29.58;;;;;;;5.61;100.00;103015.63;5219492;28;20010;-57
2022/03/26 02:17:52;;;;;;;29.52;21.65;;;;;;;5.61;100.00;103023.69;5219798;28;20025;-57
2022/03/26 02:20:23;;;;;;;35.78;29.17;;;;;;;5.64;100.00;103017.97;5219598;28;20033;-57
2022/03/26 02:22:54;;;;;;;30.13;27.02;;;;;;;5.66;100.00;103021.34;5219614;28;20064;-58
2022/03/26 02:25:25;;;;;;;32.40;26.92;;;;;;;5.64;100.00;103031.38;5219253;28;20021;-57
2022/03/26 02:27:56;;;;;;;31.23;26.13;;;;;;;5.63;100.00;103019.81;5202989;28;20041;-57
2022/03/26 02:30:26;;;;;;;29.08;26.02;;;;;;;5.62;100.00;103023.50;5219360;28;20037;-57
2022/03/26 02:32:56;;;;;;;28.20;25.30;;;;;;;5.69;100.00;103032.56;5219665;28;20029;-57
2022/03/26 02:35:27;;;;;;;33.90;26.98;;;;;;;5.58;100.00;103018.66;5219233;28;20021;-57
2022/03/26 02:37:57;;;;;;;27.83;25.23;;;;;;;5.47;100.00;103006.47;5219542;28;20511;-57
2022/03/26 02:40:28;;;;;;;36.75;26.23;;;;;;;5.62;100.00;103036.06;5204081;28;20379;-57
2022/03/26 02:42:58;;;;;;;25.85;23.23;;;;;;;5.57;100.00;103038.41;5202663;28;20029;-57
2022/03/26 02:45:29;;;;;;;31.23;28.13;;;;;;;5.59;100.00;103039.09;5202529;28;20386;-56
2022/03/26 02:48:00;;;;;;;32.03;28.63;;;;;;;5.62;100.00;103034.22;5203032;28;20030;-56
2022/03/26 02:50:30;;;;;;;28.70;25.90;;;;;;;5.72;100.00;103040.25;5219510;28;20037;-56
2022/03/26 02:53:01;;;;;;;30.20;26.95;;;;;;;5.71;100.00;103037.75;5219319;28;20386;-57
2022/03/26 02:55:31;;;;;;;27.95;25.33;;;;;;;5.69;100.00;103037.91;5218990;28;20087;-55
2022/03/26 02:58:03;;;;;;;27.08;24.25;;;;;;;5.63;100.00;103043.94;5203896;28;20387;-57
2022/03/26 03:00:34;;;;;;;34.05;26.52;;;;;;;5.53;100.00;103023.69;5203969;28;20109;-57
2022/03/26 03:03:06;;;;;;;36.75;29.17;;;;;;;5.65;100.00;103041.09;5219327;28;20487;-56
2022/03/26 03:05:37;;;;;;;30.08;26.88;;;;;;;5.60;100.00;103038.09;5219122;28;20128;-57
2022/03/26 03:08:08;;;;;;;32.35;29.15;;;;;;;5.58;100.00;103045.44;5219226;28;20128;-56
2022/03/26 03:10:38;;;;;;;33.78;29.02;;;;;;;5.53;100.00;103048.63;5204118;28;20029;-58
2022/03/26 03:13:09;;;;;;;32.63;29.20;;;;;;;5.43;100.00;103026.56;5219501;28;20017;-56
2022/03/26 03:15:40;;;;;;;30.38;24.48;;;;;;;5.41;100.00;103032.09;5219064;28;20025;-58
2022/03/26 03:18:10;;;;;;;32.20;28.00;;;;;;;5.34;100.00;103036.44;5219131;28;20379;-58
2022/03/26 03:20:41;;;;;;;31.17;26.85;;;;;;;5.36;100.00;103036.28;5219173;28;20025;-58
2022/03/26 03:23:13;;;;;;;28.27;25.42;;;;;;;5.30;100.00;103051.16;5219132;28;20140;-57
2022/03/26 03:25:43;;;;;;;33.28;25.15;;;;;;;5.29;100.00;103046.81;5221741;28;20052;-56
2022/03/26 03:28:14;;;;;;;29.75;26.38;;;;;;;5.27;100.00;103054.19;5223031;28;20108;-55
2022/03/26 03:30:45;;;;;;;30.40;27.60;;;;;;;5.26;100.00;103055.19;5206267;28;20028;-55
2022/03/26 03:33:15;;;;;;;32.33;28.98;;;;;;;5.27;100.00;103050.66;5222774;28;20560;-56
2022/03/26 03:35:46;;;;;;;29.88;26.88;;;;;;;5.25;100.00;103050.81;5205987;28;20021;-55
2022/03/26 03:38:16;;;;;;;29.15;26.05;;;;;;;5.22;100.00;103047.66;5206373;28;20454;-57
2022/03/26 03:40:47;;;;;;;36.22;28.15;;;;;;;5.20;100.00;103055.03;5222636;28;20052;-57
2022/03/26 03:43:17;;;;;;;30.27;27.55;;;;;;;5.21;100.00;103054.00;5206128;28;20033;-56
2022/03/26 03:45:48;;;;;;;29.70;26.73;;;;;;;5.12;100.00;103047.00;5222389;28;20022;-57
2022/03/26 03:48:19;;;;;;;33.13;26.30;;;;;;;5.09;100.00;103043.63;5222713;28;20044;-57
2022/03/26 03:50:49;;;;;;;30.75;27.70;;;;;;;5.04;100.00;103054.00;5205879;28;20022;-56
2022/03/26 03:53:20;;;;;;;34.08;28.40;;;;;;;5.03;100.00;103056.84;5205683;28;20037;-57
2022/03/26 03:55:50;;;;;;;33.28;27.48;;;;;;;4.95;100.00;103046.13;5205416;28;20553;-55
2022/03/26 03:58:21;;;;;;;29.98;27.13;;;;;;;4.99;100.00;103050.16;5207001;28;20394;-57
2022/03/26 04:00:51;;;;;;;29.60;26.70;;;;;;;4.98;100.00;103053.81;5222277;28;20029;-56
2022/03/26 04:03:22;;;;;;;32.20;28.77;;;;;;;4.96;100.00;103048.63;5205355;28;20029;-57
2022/03/26 04:05:53;;;;;;;32.60;28.65;;;;;;;4.93;100.00;103057.00;5222190;28;20021;-57
2022/03/26 04:08:23;;;;;;;32.90;29.90;;;;;;;4.82;100.00;103032.38;5222026;28;20034;-57
2022/03/26 04:10:54;;;;;;;29.35;26.55;;;;;;;5.02;100.00;103060.53;5222072;28;20028;-56
2022/03/26 04:13:24;;;;;;;36.72;30.15;;;;;;;5.03;100.00;103062.19;5205086;28;20029;-57
2022/03/26 04:15:55;;;;;;;35.47;30.65;;;;;;;5.03;100.00;103067.56;5222266;28;20037;-56
2022/03/26 04:18:26;;;;;;;31.17;27.85;;;;;;;4.99;100.00;103063.53;5205369;28;20043;-57
2022/03/26 04:20:57;;;;;;;31.73;28.15;;;;;;;5.00;100.00;103070.56;5221781;28;20442;-57
2022/03/26 04:23:27;;;;;;;34.22;29.42;;;;;;;4.93;100.00;103062.34;5221578;28;20408;-57
2022/03/26 04:25:58;;;;;;;35.17;27.08;;;;;;;4.92;100.00;103073.22;5221834;28;20022;-56
2022/03/26 04:28:28;;;;;;;29.85;26.65;;;;;;;4.91;100.00;103071.56;5205206;28;20032;-57
2022/03/26 04:30:58;;;;;;;31.40;28.05;;;;;;;4.82;100.00;103064.50;5221657;28;20033;-57
2022/03/26 04:33:29;;;;;;;29.08;26.20;;;;;;;4.74;100.00;103063.50;5221146;28;20029;-55
2022/03/26 04:35:59;;;;;;;45.28;31.20;;;;;;;4.55;100.00;103050.41;5220954;28;20064;-57
2022/03/26 04:38:30;;;;;;;30.80;27.65;;;;;;;4.57;100.00;103055.59;5221871;28;20492;-57
2022/03/26 04:41:00;;;;;;;33.10;30.10;;;;;;;4.55;100.00;103063.78;5221548;28;20021;-55
2022/03/26 04:43:31;;;;;;;29.75;26.60;;;;;;;4.38;100.00;103032.59;5221275;28;20071;-57
2022/03/26 04:46:01;;;;;;;43.85;30.40;;;;;;;4.22;100.00;103016.50;5205992;28;20025;-57
2022/03/26 04:48:32;;;;;;;35.80;28.52;;;;;;;4.49;100.00;103068.94;5204794;28;20028;-57
2022/03/26 04:51:02;;;;;;;34.17;30.58;;;;;;;4.52;100.00;103068.59;5204784;28;20338;-57
2022/03/26 04:53:33;;;;;;;33.63;30.15;;;;;;;4.41;100.00;103057.19;5220971;28;20031;-57
2022/03/26 04:56:04;;;;;;;34.40;27.58;;;;;;;4.39;100.00;103064.53;5204536;28;20104;-58
2022/03/26 04:58:34;;;;;;;32.00;27.63;;;;;;;4.36;100.00;103067.53;5221666;28;20040;-57
2022/03/26 05:01:05;;;;;;;41.17;27.67;;;;;;;4.29;100.00;103077.22;5222103;28;20030;-56
2022/03/26 05:03:36;;;;;;;32.13;29.35;;;;;;;4.21;100.00;103065.63;5221731;28;20112;-58
2022/03/26 05:06:06;;;;;;;28.77;25.67;;;;;;;4.28;100.00;103072.88;5221922;28;20407;-56
2022/03/26 05:08:37;;;;;;;35.60;32.15;;;;;;;4.29;100.00;103071.88;5221835;28;20036;-57
2022/03/26 05:11:07;;;;;;;34.83;29.63;;;;;;;4.28;100.00;103075.53;5220925;28;20029;-56
2022/03/26 05:13:38;;;;;;;31.33;27.88;;;;;;;4.28;100.00;103072.88;5203824;28;20021;-57
2022/03/26 05:16:08;;;;;;;31.17;27.95;;;;;;;4.18;100.00;103066.78;5204320;28;20573;-57
2022/03/26 05:18:39;;;;;;;31.80;24.90;;;;;;;4.16;100.00;103075.97;5220865;28;20120;-57
2022/03/26 05:21:10;;;;;;;34.42;30.98;;;;;;;4.22;100.00;103084.19;5220791;28;20031;-55
2022/03/26 05:23:40;;;;;;;38.97;29.67;;;;;;;4.15;100.00;103075.13;5220043;28;20018;-55
2022/03/26 05:26:11;;;;;;;46.85;30.20;;;;;;;4.22;100.00;103091.38;5220397;28;20025;-57
2022/03/26 05:28:41;;;;;;;31.55;28.42;;;;;;;4.23;100.00;103091.22;5220470;28;20026;-56
2022/03/26 05:31:12;;;;;;;30.38;26.00;;;;;;;4.25;100.00;103088.41;5205409;28;20040;-57
2022/03/26 05:33:42;;;;;;;35.47;28.17;;;;;;;4.18;100.00;103085.50;5220140;28;20037;-58
2022/03/26 05:36:13;;;;;;;36.42;32.10;;;;;;;4.16;100.00;103084.81;5220441;28;20029;-57
2022/03/26 05:38:43;;;;;;;32.03;28.77;;;;;;;4.20;100.00;103085.34;5220264;28;20021;-58
2022/03/26 05:41:15;;;;;;;32.85;29.50;;;;;;;4.25;100.00;103089.22;5220352;28;20032;-57
2022/03/26 05:43:45;;;;;;;34.85;30.30;;;;;;;4.16;100.00;103079.47;5220009;28;20059;-57
2022/03/26 05:46:16;;;;;;;32.88;29.83;;;;;;;4.26;100.00;103090.06;5220242;28;20064;-57
2022/03/26 05:48:46;;;;;;;31.92;28.48;;;;;;;4.15;100.00;103082.31;5220104;28;20026;-57
2022/03/26 05:51:17;;;;;;;33.15;29.02;;;;;;;4.17;100.00;103086.50;5219932;28;20568;-58
2022/03/26 05:53:49;;;;;;;42.83;33.50;;;;;;;4.21;100.00;103093.22;5219620;28;20570;-57
2022/03/26 05:56:20;;;;;;;33.88;30.55;;;;;;;4.23;100.00;103090.38;5220149;28;20426;-55
2022/03/26 05:58:50;;;;;;;33.15;29.17;;;;;;;4.25;100.00;103093.75;5218489;28;20025;-58
2022/03/26 06:01:24;;;;;;;38.30;34.08;;;;;;;4.31;100.00;103099.28;5181775;28;20040;-57
2022/03/26 06:03:54;;;;;;;45.55;30.05;;;;;;;4.33;100.00;103101.81;5181955;28;20033;-57
2022/03/26 06:06:25;;;;;;;40.28;32.35;;;;;;;4.25;100.00;103093.75;5199305;28;20022;-56
2022/03/26 06:08:55;;;;;;;40.53;29.30;;;;;;;4.36;100.00;103104.97;5182636;28;20034;-58
2022/03/26 06:11:27;;;;;;;37.72;32.42;;;;;;;4.43;100.00;103110.53;5198702;28;20029;-55
2022/03/26 06:13:57;;;;;;;31.55;28.50;;;;;;;4.49;100.00;103109.91;5198910;28;20030;-55
2022/03/26 06:16:28;;;;;;;33.97;30.67;;;;;;;4.45;100.00;103097.84;5198964;28;20415;-57
2022/03/26 06:18:59;;;;;;;34.92;31.08;;;;;;;4.55;100.00;103111.94;5199033;28;20026;-56
2022/03/26 06:21:30;;;;;;;39.85;34.78;;;;;;;4.64;100.00;103115.47;5198684;28;20025;-56
2022/03/26 06:24:01;;;;;;;33.95;30.52;;;;;;;4.72;100.00;103116.34;5198449;28;20163;-58
2022/03/26 06:26:31;;;;;;;32.90;29.48;;;;;;;4.81;100.00;103125.25;5198800;28;20028;-55
2022/03/26 06:29:04;;;;;;;32.88;29.73;;;;;;;4.87;100.00;103126.44;5182313;28;20050;-56
2022/03/26 06:31:35;;;;;;;34.05;30.73;;;;;;;4.90;100.00;103126.94;5182243;28;20026;-58
2022/03/26 06:34:05;;;;;;;34.38;30.90;;;;;;;4.88;100.00;103123.59;5198553;28;20026;-56
2022/03/26 06:36:36;;;;;;;35.13;31.67;;;;;;;5.01;100.00;103128.47;5182180;28;20484;-56
2022/03/26 06:39:07;;;;;;;44.33;30.48;;;;;;;5.07;100.00;103130.50;5198396;28;20049;-56
2022/03/26 06:41:39;;;;;;;34.00;30.45;;;;;;;5.15;100.00;103129.69;5182106;28;20022;-58
2022/03/26 06:44:10;;;;;;;30.20;27.25;;;;;;;5.26;100.00;103134.72;5182353;28;20503;-58
2022/03/26 06:46:41;;;;;;;37.30;30.13;;;;;;;5.35;100.00;103134.56;5199050;28;20026;-58
2022/03/26 06:49:11;;;;;;;32.20;29.33;;;;;;;5.43;100.00;103139.94;5198987;28;20400;-58
2022/03/26 06:51:42;;;;;;;38.22;30.20;;;;;;;5.42;100.00;103121.34;5198531;28;20108;-58
2022/03/26 06:54:13;;;;;;;36.67;32.83;;;;;;;5.63;100.00;103144.97;5198456;28;20033;-56
2022/03/26 06:56:44;;;;;;;30.75;27.67;;;;;;;5.53;100.00;103114.81;5198406;28;20705;-56
2022/03/26 06:59:14;;;;;;;32.17;28.35;;;;;;;5.82;100.00;103143.78;5198920;28;20034;-57
2022/03/26 07:01:45;;;;;;;32.70;29.52;;;;;;;5.93;100.00;103152.34;5202660;28;20026;-56
2022/03/26 07:04:15;;;;;;;34.13;29.20;;;;;;;6.03;100.00;103150.34;5202357;28;20036;-56
2022/03/26 07:06:45;;;;;;;33.72;30.13;;;;;;;6.10;100.00;103147.78;5200205;28;20119;-54
2022/03/26 07:09:16;;;;;;;33.60;30.33;;;;;;;6.20;100.00;103155.66;5202150;28;20061;-56
2022/03/26 07:11:46;;;;;;;33.35;29.33;;;;;;;6.27;100.00;103154.81;5185927;28;20033;-56
2022/03/26 07:14:18;;;;;;;35.25;31.48;;;;;;;6.35;100.00;103156.66;5202059;28;20479;-57
2022/03/26 07:16:48;;;;;;;36.03;30.00;;;;;;;6.41;100.00;103159.47;5203182;28;20125;-56
2022/03/26 07:19:18;;;;;;;33.00;29.45;;;;;;;6.46;100.00;103150.91;5187994;28;20030;-55
2022/03/26 07:21:49;;;;;;;32.70;27.17;;;;;;;6.48;100.00;103140.84;5203079;28;20032;-55
2022/03/26 07:24:19;;;;;;;32.95;27.55;;;;;;;6.67;100.00;103156.50;5222642;22;20037;-61
2022/03/26 07:26:50;;;;;;;28.92;26.48;;;;;;;6.85;100.00;103158.13;5201768;28;20585;-58
2022/03/26 07:29:20;;;;;;;40.92;25.63;;;;;;;7.00;100.00;103159.91;5204269;28;20108;-58
2022/03/26 07:31:51;;;;;;;37.58;30.75;;;;;;;7.17;100.00;103162.50;5187320;28;20526;-58
2022/03/26 07:34:22;;;;;;;30.98;27.50;;;;;;;7.26;100.00;103167.63;5203804;28;20025;-56
2022/03/26 07:36:53;;;;;;;37.50;28.65;;;;;;;7.39;100.00;103170.59;5203996;28;20048;-56
2022/03/26 07:39:23;;;;;;;34.45;31.40;;;;;;;7.45;100.00;103164.50;5188445;28;20025;-59
2022/03/26 07:41:54;;;;;;;29.70;26.55;;;;;;;7.64;100.00;103173.94;5186986;28;20021;-59
2022/03/26 07:44:24;;;;;;;29.63;26.65;;;;;;;7.73;100.00;103170.16;5186770;28;20068;-59
2022/03/26 07:46:55;;;;;;;30.48;27.20;;;;;;;7.91;100.00;103174.38;5187161;28;20028;-59
2022/03/26 07:49:25;;;;;;;31.58;27.90;;;;;;;8.01;100.00;103170.44;5203621;28;20057;-57
2022/03/26 07:51:56;;;;;;;32.10;25.20;;;;;;;8.13;100.00;103176.19;5203345;28;20026;-57
2022/03/26 07:54:27;;;;;;;31.13;25.85;;;;;;;8.21;100.00;103169.88;5186681;28;20025;-59
2022/03/26 07:56:58;;;;;;;36.55;28.00;;;;;;;8.34;100.00;103175.53;5188464;28;20026;-58
2022/03/26 07:59:28;;;;;;;35.40;29.10;;;;;;;8.36;100.00;103165.41;5203376;28;20026;-57
2022/03/26 08:01:59;;;;;;;29.13;24.02;;;;;;;8.53;100.00;103177.66;5203219;28;20068;-58
2022/03/26 08:04:29;;;;;;;34.83;31.00;;;;;;;8.63;100.00;103183.59;5186932;28;20487;-55
2022/03/26 08:07:00;;;;;;;28.67;25.33;;;;;;;8.73;100.00;103186.00;5186726;28;20483;-58
2022/03/26 08:09:30;;;;;;;31.45;26.92;;;;;;;8.73;100.00;103167.13;5186708;28;20033;-55
2022/03/26 08:12:01;;;;;;;31.45;27.40;;;;;;;8.91;100.00;103185.63;5185507;28;20022;-58
2022/03/26 08:14:33;;;;;;;34.13;25.77;;;;;;;9.05;100.00;103192.84;5186286;28;20029;-57
2022/03/26 08:17:04;;;;;;;30.38;27.33;;;;;;;9.16;100.00;103194.22;5186360;28;20053;-54
2022/03/26 08:19:35;;;;;;;39.00;30.92;;;;;;;9.29;100.00;103189.78;5188148;28;20050;-55
2022/03/26 08:22:05;;;;;;;32.83;27.52;;;;;;;9.38;100.00;103194.06;5203110;28;20036;-58
2022/03/26 08:24:36;;;;;;;35.15;31.42;;;;;;;9.51;100.00;103193.38;5186022;28;20496;-56
2022/03/26 08:27:07;;;;;;;32.95;29.55;;;;;;;9.74;100.00;103185.06;5203034;28;20447;-55
2022/03/26 08:29:38;;;;;;;37.80;27.95;;;;;;;9.84;100.00;103193.66;5202755;28;20030;-56
2022/03/26 08:32:08;;;;;;;34.78;28.85;;;;;;;9.98;100.00;103179.25;5187943;28;20075;-56
2022/03/26 08:34:39;;;;;;;41.85;28.88;;;;;;;10.25;100.00;103199.22;5202464;28;20026;-55
2022/03/26 08:37:09;;;;;;;33.15;27.35;;;;;;;10.06;100.00;103125.13;5202542;28;20021;-58
2022/03/26 08:39:40;;;;;;;32.20;28.98;;;;;;;10.57;100.00;103186.97;5186283;28;20053;-57
2022/03/26 08:42:10;;;;;;;30.80;27.90;;;;;;;10.68;100.00;103177.47;5186029;28;20030;-64
2022/03/26 08:44:40;;;;;;;29.55;26.77;;;;;;;10.93;100.00;103194.03;5202289;28;20088;-56
2022/03/26 08:47:11;;;;;;;33.88;29.33;;;;;;;10.99;100.00;103190.50;5202537;28;20033;-57
2022/03/26 08:49:44;;;;;;;34.08;27.95;;;;;;;11.09;100.00;103193.66;5186978;28;20053;-57
2022/03/26 08:52:17;;;;;;;42.95;29.80;;;;;;;11.07;100.00;103183.03;5202374;28;20026;-54
2022/03/26 08:54:48;;;;;;;28.58;25.52;;;;;;;11.30;100.00;103198.91;5202136;28;20403;-56
2022/03/26 08:57:19;;;;;;;38.13;29.25;;;;;;;11.57;100.00;103190.88;5185905;28;20049;-57
2022/03/26 08:59:49;;;;;;;29.92;27.13;;;;;;;11.88;100.00;103188.44;5185835;28;20033;-56
2022/03/26 09:02:20;;;;;;;49.03;26.05;;;;;;;12.15;100.00;103189.25;5185686;28;20084;-56
2022/03/26 09:04:50;;;;;;;31.95;27.65;;;;;;;12.18;100.00;103188.84;5185198;28;20212;-54
2022/03/26 09:07:21;;;;;;;30.30;27.00;;;;;;;12.23;100.00;103182.78;5202452;28;20503;-54
2022/03/26 09:09:51;;;;;;;33.97;27.70;;;;;;;12.38;100.00;103184.25;5201764;28;20423;-55
2022/03/26 09:12:22;;;;;;;33.13;27.50;;;;;;;12.58;100.00;103186.06;5185771;28;20068;-57
2022/03/26 09:14:52;;;;;;;28.75;24.90;;;;;;;12.80;100.00;103187.44;5185376;28;20022;-55
2022/03/26 09:17:22;;;;;;;33.70;27.38;;;;;;;12.96;100.00;103180.72;5185772;28;20032;-55
2022/03/26 09:19:54;;;;;;;29.60;26.27;;;;;;;13.12;100.00;103180.22;5185791;28;20021;-58
2022/03/26 09:22:25;;;;;;;31.70;28.38;;;;;;;13.27;100.00;103177.28;5185007;28;20030;-57
2022/03/26 09:24:55;;;;;;;32.27;26.07;;;;;;;13.26;100.00;103184.59;5184852;28;20395;-54
2022/03/26 09:27:26;;;;;;;33.50;26.58;;;;;;;13.31;100.00;103175.75;5185202;28;20029;-56
2022/03/26 09:29:57;;;;;;;31.85;26.60;;;;;;;13.55;100.00;103176.88;5185227;28;20033;-59
2022/03/26 09:32:27;;;;;;;33.65;30.13;;;;;;;13.76;100.00;103185.50;5185036;28;20030;-56
2022/03/26 09:34:58;;;;;;;32.42;27.20;;;;;;;13.97;100.00;103181.56;5201698;28;20017;-55
2022/03/26 09:37:28;;;;;;;33.15;29.83;;;;;;;14.13;100.00;103164.72;5201389;28;20022;-54
2022/03/26 09:39:58;;;;;;;35.80;27.58;;;;;;;14.14;100.00;103170.97;5201372;28;20095;-55
2022/03/26 09:42:29;;;;;;;34.85;25.23;;;;;;;14.08;100.00;103169.16;5201688;28;20025;-55
2022/03/26 09:45:00;;;;;;;32.90;26.55;;;;;;;14.08;100.00;103180.00;5185798;28;20029;-57
2022/03/26 09:47:30;;;;;;;36.83;28.73;;;;;;;14.11;100.00;103177.69;5185008;28;20033;-58
2022/03/26 09:50:03;;;;;;;34.90;27.92;;;;;;;14.27;96.78;103167.28;5184746;28;20088;-55
2022/03/26 09:52:35;;;;;;;31.05;25.80;;;;;;;14.26;98.47;103149.31;5201680;28;20022;-57
2022/03/26 09:55:06;;;;;;;33.85;27.38;;;;;;;14.51;96.81;103172.69;5201215;28;20401;-58
2022/03/26 09:57:36;;;;;;;34.88;27.35;;;;;;;14.40;97.16;103169.88;5184634;28;20450;-58
2022/03/26 10:00:09;;;;;;;40.67;26.48;;;;;;;14.48;96.12;103169.59;5184680;28;20026;-55
2022/03/26 10:02:40;;;;;;;26.63;23.88;;;;;;;14.56;94.62;103176.63;5184555;28;20026;-56
2022/03/26 10:05:12;;;;;;;37.22;24.13;;;;;;;14.44;93.12;103157.50;5184447;28;20502;-58
2022/03/26 10:07:44;;;;;;;31.00;25.30;;;;;;;14.67;92.01;103165.84;5200821;28;20118;-57
2022/03/26 10:10:24;;;;;;;32.95;24.73;;;;;;;14.68;89.43;103158.50;5185177;28;20571;-57
2022/03/26 10:12:55;;;;;;;;;;;;;;;14.86;89.74;103161.19;5201403;28;20045;-58
2022/03/26 10:15:25;;;;;;;33.88;25.38;;;;;;;15.07;89.46;103160.69;5184165;28;20058;-56
2022/03/26 10:18:08;;;;;;;33.28;23.48;;;;;;;15.28;88.50;103161.28;5184617;28;20454;-58
2022/03/26 10:20:39;;;;;;;29.58;26.20;;;;;;;15.27;86.93;103146.84;5184615;28;20105;-57
2022/03/26 10:23:10;;;;;;;36.80;24.98;;;;;;;15.45;86.55;103165.81;5201382;28;20038;-59
2022/03/26 10:25:40;;;;;;;34.85;24.52;;;;;;;15.45;87.62;103154.94;5200839;28;20503;-59
2022/03/26 10:28:24;;;;;;;32.60;24.73;;;;;;;15.67;87.17;103151.69;5184607;28;20030;-59
2022/03/26 10:34:10;;;;;;;33.40;26.17;;;;;;;15.87;81.70;103152.22;5185204;28;20069;-59
2022/03/26 10:37:01;;;;;;;31.83;26.52;;;;;;;15.88;80.51;103144.88;5184542;28;20396;-58
2022/03/26 10:39:33;;;;;;;29.05;25.17;;;;;;;15.82;79.28;103155.63;5201425;28;20033;-59
2022/03/26 10:42:05;;;;;;;25.88;22.70;;;;;;;15.94;79.88;103152.06;5184864;28;20048;-58
2022/03/26 10:44:35;;;;;;;25.45;22.88;;;;;;;16.06;78.42;103126.50;5184446;28;20037;-57
2022/03/26 10:47:07;;;;;;;29.15;23.40;;;;;;;16.34;77.15;103146.75;5185613;28;20033;-59
2022/03/26 10:49:37;;;;;;;24.83;21.88;;;;;;;16.33;77.52;103139.63;5184622;28;20475;-59
2022/03/26 10:52:16;;;;;;;26.73;20.52;;;;;;;16.40;75.96;103141.16;5184434;28;20109;-57
2022/03/26 10:54:48;;;;;;;31.83;22.50;;;;;;;16.40;75.23;103141.16;5200532;28;20507;-56
2022/03/26 10:57:24;;;;;;;24.65;17.55;;;;;;;16.30;75.67;103135.47;5200761;28;20018;-58
2022/03/26 10:59:55;;;;;;;30.65;23.63;;;;;;;16.48;74.58;103131.75;5184521;28;20029;-58
2022/03/26 11:02:25;;;;;;;22.58;20.15;;;;;;;16.50;73.49;103135.91;5200539;28;20084;-61
2022/03/26 11:04:56;;;;;;;26.55;20.40;;;;;;;16.69;74.03;103133.06;5184180;28;20080;-59
2022/03/26 11:07:27;;;;;;;19.60;17.63;;;;;;;16.76;71.76;103106.44;5184236;28;20041;-56
2022/03/26 11:09:59;;;;;;;34.97;18.88;;;;;;;16.70;70.17;103129.28;5200488;28;20479;-59
2022/03/26 11:12:41;;;;;;;32.75;19.02;;;;;;;16.64;71.44;103117.41;5184548;28;20485;-58
2022/03/26 11:15:38;;;;;;;20.75;18.65;;;;;;;16.78;72.73;103118.78;5184115;28;20030;-56
2022/03/26 11:18:36;;;;;;;31.42;17.67;;;;;;;16.90;71.14;103115.19;5184105;28;20030;-58
2022/03/26 11:21:41;;;;;;;24.10;18.08;;;;;;;17.05;70.27;103121.75;5200835;28;20396;-58
2022/03/26 11:24:27;;;;;;;21.52;19.00;;;;;;;17.32;71.44;103123.91;5200183;28;20488;-57
2022/03/26 11:27:35;;;;;;;26.92;20.33;;;;;;;17.41;71.49;103120.50;5200430;28;20026;-57
2022/03/26 11:30:18;;;;;;;20.13;17.67;;;;;;;17.33;71.38;103112.69;5200462;28;20040;-56
2022/03/26 11:32:52;;;;;;;26.58;19.73;;;;;;;17.50;71.20;103105.38;5200443;28;20028;-59